sensor_id;sensor_type;location;lat;lon;timestamp;pressure;altitude;pressure_sealevel;temperature;humidity
20971;BME280;10644;48.834;10.088;2022-10-31T00:04:30;97134.22;;;17.88;52.92
20971;BME280;10644;48.834;10.088;2022-10-31T00:07:06;97142.00;;;17.88;52.56
20971;BME280;10644;48.834;10.088;2022-10-31T00:09:39;97145.53;;;17.76;52.96
20971;BME280;10644;48.834;10.088;2022-10-31T00:12:15;97148.28;;;17.51;53.58
20971;BME280;10644;48.834;10.088;2022-10-31T00:14:54;97152.44;;;17.30;53.75
20971;BME280;10644;48.834;10.088;2022-10-31T00:17:19;97156.31;;;17.35;54.15
20971;BME280;10644;48.834;10.088;2022-10-31T00:20:09;97165.00;;;17.47;53.33
20971;BME280;10644;48.834;10.088;2022-10-31T00:22:45;97154.63;;;17.47;52.98
20971;BME280;10644;48.834;10.088;2022-10-31T00:25:21;97152.16;;;17.45;53.19
20971;BME280;10644;48.834;10.088;2022-10-31T00:28:01;97155.44;;;17.47;52.88
20971;BME280;10644;48.834;10.088;2022-10-31T00:30:31;97157.09;;;17.48;53.12
20971;BME280;10644;48.834;10.088;2022-10-31T00:33:12;97149.66;;;17.44;52.58
20971;BME280;10644;48.834;10.088;2022-10-31T00:38:30;97152.84;;;17.47;53.30
20971;BME280;10644;48.834;10.088;2022-10-31T00:41:07;97156.03;;;17.51;53.00
20971;BME280;10644;48.834;10.088;2022-10-31T00:43:34;97155.22;;;17.27;53.67
20971;BME280;10644;48.834;10.088;2022-10-31T00:46:04;97149.94;;;17.28;53.87
20971;BME280;10644;48.834;10.088;2022-10-31T00:48:38;97145.81;;;17.26;53.22
20971;BME280;10644;48.834;10.088;2022-10-31T00:51:12;97152.75;;;17.25;53.40
20971;BME280;10644;48.834;10.088;2022-10-31T00:54:01;97151.38;;;17.32;52.97
20971;BME280;10644;48.834;10.088;2022-10-31T00:56:41;97141.81;;;17.33;52.73
20971;BME280;10644;48.834;10.088;2022-10-31T00:59:12;97145.84;;;17.37;52.99
20971;BME280;10644;48.834;10.088;2022-10-31T01:01:48;97152.16;;;17.45;52.86
20971;BME280;10644;48.834;10.088;2022-10-31T01:04:14;97149.47;;;17.47;52.96
20971;BME280;10644;48.834;10.088;2022-10-31T01:06:50;97150.50;;;17.44;52.39
20971;BME280;10644;48.834;10.088;2022-10-31T01:09:21;97146.19;;;17.32;52.73
20971;BME280;10644;48.834;10.088;2022-10-31T01:12:12;97147.00;;;17.33;52.64
20971;BME280;10644;48.834;10.088;2022-10-31T01:14:54;97136.16;;;17.28;52.39
20971;BME280;10644;48.834;10.088;2022-10-31T01:17:24;97141.56;;;17.25;52.49
20971;BME280;10644;48.834;10.088;2022-10-31T01:20:03;97133.31;;;17.20;52.48
20971;BME280;10644;48.834;10.088;2022-10-31T01:22:35;97143.63;;;17.09;52.88
20971;BME280;10644;48.834;10.088;2022-10-31T01:25:10;97135.00;;;17.08;53.08
20971;BME280;10644;48.834;10.088;2022-10-31T01:27:42;97138.22;;;17.12;52.78
20971;BME280;10644;48.834;10.088;2022-10-31T01:30:08;97140.09;;;17.10;53.24
20971;BME280;10644;48.834;10.088;2022-10-31T01:32:33;97137.84;;;17.05;53.12
20971;BME280;10644;48.834;10.088;2022-10-31T01:38:13;97135.00;;;17.08;52.86
20971;BME280;10644;48.834;10.088;2022-10-31T01:40:48;97138.44;;;17.09;52.64
20971;BME280;10644;48.834;10.088;2022-10-31T01:43:46;97133.75;;;16.90;52.94
20971;BME280;10644;48.834;10.088;2022-10-31T01:46:12;97133.81;;;16.78;53.61
20971;BME280;10644;48.834;10.088;2022-10-31T01:48:41;97137.31;;;16.77;53.51
20971;BME280;10644;48.834;10.088;2022-10-31T01:51:17;97125.53;;;16.73;52.97
20971;BME280;10644;48.834;10.088;2022-10-31T01:53:52;97139.22;;;16.75;53.49
20971;BME280;10644;48.834;10.088;2022-10-31T01:56:48;97130.50;;;16.76;53.22
20971;BME280;10644;48.834;10.088;2022-10-31T01:59:17;97126.88;;;16.78;53.78
20971;BME280;10644;48.834;10.088;2022-10-31T02:01:46;97135.03;;;16.85;53.38
20971;BME280;10644;48.834;10.088;2022-10-31T02:04:18;97129.88;;;16.85;53.15
20971;BME280;10644;48.834;10.088;2022-10-31T02:07:02;97128.41;;;16.81;52.84
20971;BME280;10644;48.834;10.088;2022-10-31T02:09:34;97122.19;;;16.83;52.60
20971;BME280;10644;48.834;10.088;2022-10-31T02:12:11;97126.78;;;16.80;52.64
20971;BME280;10644;48.834;10.088;2022-10-31T02:14:52;97113.34;;;16.75;52.41
20971;BME280;10644;48.834;10.088;2022-10-31T02:17:17;97118.13;;;16.68;53.08
20971;BME280;10644;48.834;10.088;2022-10-31T02:30:40;97116.03;;;16.73;52.92
20971;BME280;10644;48.834;10.088;2022-10-31T02:36:44;97109.72;;;16.77;52.46
20971;BME280;10644;48.834;10.088;2022-10-31T02:48:45;97106.31;;;16.64;52.33
20971;BME280;10644;48.834;10.088;2022-10-31T02:51:15;97110.44;;;16.67;52.52
20971;BME280;10644;48.834;10.088;2022-10-31T02:53:44;97108.19;;;16.62;52.43
20971;BME280;10644;48.834;10.088;2022-10-31T02:56:30;97112.53;;;16.62;52.10
20971;BME280;10644;48.834;10.088;2022-10-31T02:59:05;97112.69;;;16.48;52.52
20971;BME280;10644;48.834;10.088;2022-10-31T03:05:04;97111.19;;;16.08;52.91
20971;BME280;10644;48.834;10.088;2022-10-31T03:10:57;97117.00;;;15.99;54.05
20971;BME280;10644;48.834;10.088;2022-10-31T03:19:06;97118.19;;;16.18;53.55
20971;BME280;10644;48.834;10.088;2022-10-31T03:21:45;97111.91;;;16.22;53.61
20971;BME280;10644;48.834;10.088;2022-10-31T03:24:20;97092.06;;;16.23;53.22
20971;BME280;10644;48.834;10.088;2022-10-31T03:26:57;97104.97;;;16.23;52.99
20971;BME280;10644;48.834;10.088;2022-10-31T03:29:27;97099.81;;;16.23;53.35
20971;BME280;10644;48.834;10.088;2022-10-31T03:32:30;97108.28;;;16.25;53.06
20971;BME280;10644;48.834;10.088;2022-10-31T03:35:08;97103.09;;;16.25;53.09
20971;BME280;10644;48.834;10.088;2022-10-31T03:37:35;97113.03;;;16.31;53.33
20971;BME280;10644;48.834;10.088;2022-10-31T03:40:19;97108.28;;;16.25;52.99
20971;BME280;10644;48.834;10.088;2022-10-31T03:43:09;97112.50;;;16.26;52.91
20971;BME280;10644;48.834;10.088;2022-10-31T03:45:59;97108.03;;;16.28;52.96
20971;BME280;10644;48.834;10.088;2022-10-31T03:48:41;97104.75;;;16.26;52.72
20971;BME280;10644;48.834;10.088;2022-10-31T03:53:56;97122.06;;;16.13;52.62
20971;BME280;10644;48.834;10.088;2022-10-31T03:59:40;97112.66;;;15.99;53.00
20971;BME280;10644;48.834;10.088;2022-10-31T04:04:58;97116.59;;;15.92;53.40
20971;BME280;10644;48.834;10.088;2022-10-31T04:07:33;97112.16;;;15.94;53.43
20971;BME280;10644;48.834;10.088;2022-10-31T04:10:04;97111.00;;;15.98;53.55
20971;BME280;10644;48.834;10.088;2022-10-31T04:12:43;97110.16;;;15.98;53.27
20971;BME280;10644;48.834;10.088;2022-10-31T04:15:23;97113.06;;;16.06;53.23
20971;BME280;10644;48.834;10.088;2022-10-31T04:17:53;97105.00;;;15.98;53.25
20971;BME280;10644;48.834;10.088;2022-10-31T04:20:34;97106.88;;;15.96;53.19
20971;BME280;10644;48.834;10.088;2022-10-31T04:23:24;97106.88;;;15.96;52.90
20971;BME280;10644;48.834;10.088;2022-10-31T04:26:05;97108.25;;;15.89;53.15
20971;BME280;10644;48.834;10.088;2022-10-31T04:28:45;97106.03;;;15.83;53.37
20971;BME280;10644;48.834;10.088;2022-10-31T04:31:24;97101.09;;;15.80;53.27
20971;BME280;10644;48.834;10.088;2022-10-31T04:33:52;97101.81;;;15.82;53.68
20971;BME280;10644;48.834;10.088;2022-10-31T04:36:50;97107.50;;;15.87;53.28
20971;BME280;10644;48.834;10.088;2022-10-31T04:39:41;97102.56;;;15.84;53.16
20971;BME280;10644;48.834;10.088;2022-10-31T04:42:12;97106.25;;;15.80;53.39
20971;BME280;10644;48.834;10.088;2022-10-31T04:44:40;97093.53;;;15.77;53.79
20971;BME280;10644;48.834;10.088;2022-10-31T04:50:31;97091.56;;;15.80;53.56
20971;BME280;10644;48.834;10.088;2022-10-31T04:53:00;97088.19;;;15.80;53.43
20971;BME280;10644;48.834;10.088;2022-10-31T04:55:25;97091.78;;;15.77;53.25
20971;BME280;10644;48.834;10.088;2022-10-31T04:57:51;97090.34;;;15.73;53.78
20971;BME280;10644;48.834;10.088;2022-10-31T05:00:23;97090.44;;;15.72;53.48
20971;BME280;10644;48.834;10.088;2022-10-31T05:03:13;97082.28;;;15.65;53.36
20971;BME280;10644;48.834;10.088;2022-10-31T05:05:50;97083.44;;;15.61;53.50
20971;BME280;10644;48.834;10.088;2022-10-31T05:08:50;97085.91;;;15.63;53.48
20971;BME280;10644;48.834;10.088;2022-10-31T05:11:38;97092.41;;;15.43;54.77
20971;BME280;10644;48.834;10.088;2022-10-31T05:14:09;97081.75;;;15.48;54.65
20971;BME280;10644;48.834;10.088;2022-10-31T05:16:54;97090.56;;;15.58;53.77
20971;BME280;10644;48.834;10.088;2022-10-31T05:19:23;97078.16;;;15.50;53.96
20971;BME280;10644;48.834;10.088;2022-10-31T05:21:57;97079.94;;;15.50;54.01
20971;BME280;10644;48.834;10.088;2022-10-31T05:24:43;97080.63;;;15.52;53.67
20971;BME280;10644;48.834;10.088;2022-10-31T05:27:25;97082.50;;;15.50;53.57
20971;BME280;10644;48.834;10.088;2022-10-31T05:30:21;97080.63;;;15.39;53.84
20971;BME280;10644;48.834;10.088;2022-10-31T05:32:49;97082.28;;;15.40;54.17
20971;BME280;10644;48.834;10.088;2022-10-31T05:35:30;97074.66;;;15.39;53.78
20971;BME280;10644;48.834;10.088;2022-10-31T05:38:06;97064.31;;;15.39;53.92
20971;BME280;10644;48.834;10.088;2022-10-31T05:40:33;97066.38;;;15.34;54.27
20971;BME280;10644;48.834;10.088;2022-10-31T05:42:58;97066.91;;;15.39;54.01
20971;BME280;10644;48.834;10.088;2022-10-31T05:45:25;97055.44;;;15.43;53.84
20971;BME280;10644;48.834;10.088;2022-10-31T05:48:07;97067.03;;;15.50;53.57
20971;BME280;10644;48.834;10.088;2022-10-31T05:50:38;97062.66;;;15.50;53.72
20971;BME280;10644;48.834;10.088;2022-10-31T05:53:04;97055.66;;;15.40;53.94
20971;BME280;10644;48.834;10.088;2022-10-31T05:55:49;97063.41;;;15.40;53.60
20971;BME280;10644;48.834;10.088;2022-10-31T05:58:25;97046.44;;;15.36;53.59
20971;BME280;10644;48.834;10.088;2022-10-31T06:00:56;97056.63;;;15.25;54.29
20971;BME280;10644;48.834;10.088;2022-10-31T06:03:34;97051.38;;;15.26;53.80
20971;BME280;10644;48.834;10.088;2022-10-31T06:06:02;97040.94;;;15.28;54.36
20971;BME280;10644;48.834;10.088;2022-10-31T06:08:28;97041.28;;;15.36;53.96
20971;BME280;10644;48.834;10.088;2022-10-31T06:11:17;97041.63;;;15.44;53.79
20971;BME280;10644;48.834;10.088;2022-10-31T06:13:48;97034.16;;;15.39;53.76
20971;BME280;10644;48.834;10.088;2022-10-31T06:16:30;97040.72;;;15.31;53.75
20971;BME280;10644;48.834;10.088;2022-10-31T06:18:57;97038.38;;;15.28;53.80
20971;BME280;10644;48.834;10.088;2022-10-31T06:21:41;97046.09;;;15.15;53.92
20971;BME280;10644;48.834;10.088;2022-10-31T06:24:07;97053.00;;;15.02;54.41
20971;BME280;10644;48.834;10.088;2022-10-31T06:26:44;97053.09;;;15.01;54.43
20971;BME280;10644;48.834;10.088;2022-10-31T06:29:16;97049.56;;;15.02;54.42
20971;BME280;10644;48.834;10.088;2022-10-31T06:31:52;97053.09;;;15.01;54.48
20971;BME280;10644;48.834;10.088;2022-10-31T06:34:24;97060.84;;;15.01;54.65
20971;BME280;10644;48.834;10.088;2022-10-31T06:36:54;97061.53;;;15.03;54.78
20971;BME280;10644;48.834;10.088;2022-10-31T06:39:48;97066.91;;;15.00;54.37
20971;BME280;10644;48.834;10.088;2022-10-31T06:42:15;97063.81;;;14.95;54.99
20971;BME280;10644;48.834;10.088;2022-10-31T06:45:05;97057.00;;;14.94;54.68
20971;BME280;10644;48.834;10.088;2022-10-31T06:47:37;97058.56;;;14.96;55.26
20971;BME280;10644;48.834;10.088;2022-10-31T06:50:12;97059.72;;;15.05;55.30
20971;BME280;10644;48.834;10.088;2022-10-31T06:52:38;97060.22;;;15.10;55.34
20971;BME280;10644;48.834;10.088;2022-10-31T06:55:05;97064.06;;;15.17;54.81
20971;BME280;10644;48.834;10.088;2022-10-31T06:57:30;97057.44;;;15.13;55.42
20971;BME280;10644;48.834;10.088;2022-10-31T06:59:59;97054.13;;;15.23;55.34
20971;BME280;10644;48.834;10.088;2022-10-31T07:02:38;97061.38;;;15.31;55.08
20971;BME280;10644;48.834;10.088;2022-10-31T07:05:15;97062.66;;;15.38;55.02
20971;BME280;10644;48.834;10.088;2022-10-31T07:07:40;97061.00;;;15.37;55.80
20971;BME280;10644;48.834;10.088;2022-10-31T07:10:07;97056.16;;;15.45;55.84
20971;BME280;10644;48.834;10.088;2022-10-31T07:12:38;97049.66;;;15.52;55.96
20971;BME280;10644;48.834;10.088;2022-10-31T07:15:09;97058.53;;;15.60;56.12
20971;BME280;10644;48.834;10.088;2022-10-31T07:17:48;97047.78;;;15.66;55.93
20971;BME280;10644;48.834;10.088;2022-10-31T07:20:17;97055.03;;;15.74;55.83
20971;BME280;10644;48.834;10.088;2022-10-31T07:22:42;97042.63;;;15.79;56.26
20971;BME280;10644;48.834;10.088;2022-10-31T07:25:09;97043.31;;;15.81;56.24
20971;BME280;10644;48.834;10.088;2022-10-31T07:27:40;97053.25;;;15.74;56.74
20971;BME280;10644;48.834;10.088;2022-10-31T07:30:07;97043.31;;;15.81;56.68
20971;BME280;10644;48.834;10.088;2022-10-31T07:32:48;97041.78;;;15.91;56.45
20971;BME280;10644;48.834;10.088;2022-10-31T07:35:20;97052.78;;;16.05;56.92
20971;BME280;10644;48.834;10.088;2022-10-31T07:37:57;97054.41;;;16.19;56.47
20971;BME280;10644;48.834;10.088;2022-10-31T07:40:26;97054.00;;;16.25;56.48
20971;BME280;10644;48.834;10.088;2022-10-31T07:42:52;97047.69;;;16.29;57.15
20971;BME280;10644;48.834;10.088;2022-10-31T07:45:24;97055.69;;;16.37;56.89
20971;BME280;10644;48.834;10.088;2022-10-31T07:47:52;97049.19;;;16.44;56.87
20971;BME280;10644;48.834;10.088;2022-10-31T07:50:22;97051.22;;;16.51;56.85
20971;BME280;10644;48.834;10.088;2022-10-31T07:53:11;97052.34;;;16.60;56.22
20971;BME280;10644;48.834;10.088;2022-10-31T07:55:47;97045.66;;;16.68;56.35
20971;BME280;10644;48.834;10.088;2022-10-31T07:58:16;97043.38;;;16.76;56.76
20971;BME280;10644;48.834;10.088;2022-10-31T08:00:51;97039.28;;;16.85;56.50
20971;BME280;10644;48.834;10.088;2022-10-31T08:03:28;97046.16;;;16.97;56.24
20971;BME280;10644;48.834;10.088;2022-10-31T08:05:56;97043.81;;;17.05;56.62
20971;BME280;10644;48.834;10.088;2022-10-31T08:08:21;97038.41;;;17.08;56.49
20971;BME280;10644;48.834;10.088;2022-10-31T08:10:46;97035.09;;;17.06;56.88
20971;BME280;10644;48.834;10.088;2022-10-31T08:13:17;97034.31;;;17.16;56.49
20971;BME280;10644;48.834;10.088;2022-10-31T08:15:42;97029.97;;;17.28;56.25
20971;BME280;10644;48.834;10.088;2022-10-31T08:18:15;97027.22;;;17.42;56.42
20971;BME280;10644;48.834;10.088;2022-10-31T08:20:56;97033.38;;;17.17;57.35
20971;BME280;10644;48.834;10.088;2022-10-31T08:23:26;97024.66;;;17.18;57.16
20971;BME280;10644;48.834;10.088;2022-10-31T08:25:58;97024.09;;;17.26;57.21
20971;BME280;10644;48.834;10.088;2022-10-31T08:28:45;97030.28;;;17.47;57.21
20971;BME280;10644;48.834;10.088;2022-10-31T08:31:19;97027.25;;;17.64;56.89
20971;BME280;10644;48.834;10.088;2022-10-31T08:33:45;97022.28;;;17.83;56.73
20971;BME280;10644;48.834;10.088;2022-10-31T08:36:22;97017.56;;;17.99;56.56
20971;BME280;10644;48.834;10.088;2022-10-31T08:38:51;97017.19;;;18.14;56.40
20971;BME280;10644;48.834;10.088;2022-10-31T08:41:16;97006.41;;;18.30;56.06
20971;BME280;10644;48.834;10.088;2022-10-31T08:43:44;97019.66;;;18.38;56.10
20971;BME280;10644;48.834;10.088;2022-10-31T08:46:16;97006.66;;;18.49;56.06
20971;BME280;10644;48.834;10.088;2022-10-31T08:49:07;97010.66;;;18.42;56.00
20971;BME280;10644;48.834;10.088;2022-10-31T08:55:06;97002.13;;;18.62;55.87
20971;BME280;10644;48.834;10.088;2022-10-31T08:57:38;96999.75;;;18.59;56.15
20971;BME280;10644;48.834;10.088;2022-10-31T09:00:10;96998.06;;;18.69;56.72
20971;BME280;10644;48.834;10.088;2022-10-31T09:02:35;97000.06;;;18.76;56.54
20971;BME280;10644;48.834;10.088;2022-10-31T09:05:04;96990.53;;;18.97;56.07
20971;BME280;10644;48.834;10.088;2022-10-31T09:07:41;96987.34;;;19.14;55.72
20971;BME280;10644;48.834;10.088;2022-10-31T09:10:08;96978.16;;;19.31;55.37
20971;BME280;10644;48.834;10.088;2022-10-31T09:12:34;96982.16;;;19.35;55.28
20971;BME280;10644;48.834;10.088;2022-10-31T09:15:05;96977.31;;;19.51;55.52
20971;BME280;10644;48.834;10.088;2022-10-31T09:17:31;96980.59;;;19.53;55.92
20971;BME280;10644;48.834;10.088;2022-10-31T09:19:59;96979.03;;;19.71;55.53
20971;BME280;10644;48.834;10.088;2022-10-31T09:22:26;96976.50;;;19.80;55.56
20971;BME280;10644;48.834;10.088;2022-10-31T09:24:52;96978.38;;;19.78;55.90
20971;BME280;10644;48.834;10.088;2022-10-31T09:27:24;96971.41;;;19.79;55.87
20971;BME280;10644;48.834;10.088;2022-10-31T09:29:51;96966.81;;;20.01;55.88
20971;BME280;10644;48.834;10.088;2022-10-31T09:32:17;96971.97;;;20.22;55.66
20971;BME280;10644;48.834;10.088;2022-10-31T09:34:43;96971.84;;;20.33;55.45
20971;BME280;10644;48.834;10.088;2022-10-31T09:37:15;96972.97;;;20.40;55.19
20971;BME280;10644;48.834;10.088;2022-10-31T09:39:46;96969.28;;;20.42;55.06
20971;BME280;10644;48.834;10.088;2022-10-31T09:42:42;96968.44;;;20.42;54.95
20971;BME280;10644;48.834;10.088;2022-10-31T09:50:32;96963.34;;;20.88;54.92
20971;BME280;10644;48.834;10.088;2022-10-31T09:53:07;96967.75;;;21.06;54.93
20971;BME280;10644;48.834;10.088;2022-10-31T09:55:41;96959.34;;;21.22;54.85
20971;BME280;10644;48.834;10.088;2022-10-31T09:58:18;96962.22;;;21.28;54.76
20971;BME280;10644;48.834;10.088;2022-10-31T10:00:46;96963.53;;;21.51;54.15
20971;BME280;10644;48.834;10.088;2022-10-31T10:03:39;96959.09;;;21.71;54.10
20971;BME280;10644;48.834;10.088;2022-10-31T10:06:24;96950.41;;;21.80;53.76
20971;BME280;10644;48.834;10.088;2022-10-31T10:08:53;96946.44;;;22.03;53.66
20971;BME280;10644;48.834;10.088;2022-10-31T10:11:28;96947.34;;;22.11;53.67
20971;BME280;10644;48.834;10.088;2022-10-31T10:22:21;96938.44;;;22.04;53.45
20971;BME280;10644;48.834;10.088;2022-10-31T10:30:17;96929.88;;;22.56;52.96
20971;BME280;10644;48.834;10.088;2022-10-31T10:32:52;96931.34;;;22.76;52.46
20971;BME280;10644;48.834;10.088;2022-10-31T10:36:01;96925.69;;;22.81;52.14
20971;BME280;10644;48.834;10.088;2022-10-31T10:39:03;96929.47;;;22.86;52.09
20971;BME280;10644;48.834;10.088;2022-10-31T10:41:31;96917.56;;;22.92;51.77
20971;BME280;10644;48.834;10.088;2022-10-31T10:43:57;96918.88;;;22.88;51.71
20971;BME280;10644;48.834;10.088;2022-10-31T10:49:18;96906.38;;;22.56;52.29
20971;BME280;10644;48.834;10.088;2022-10-31T10:52:10;96908.94;;;22.74;52.35
20971;BME280;10644;48.834;10.088;2022-10-31T10:57:50;96910.22;;;23.13;51.02
20971;BME280;10644;48.834;10.088;2022-10-31T11:00:30;96901.63;;;23.20;50.37
20971;BME280;10644;48.834;10.088;2022-10-31T11:02:57;96899.41;;;23.33;50.55
20971;BME280;10644;48.834;10.088;2022-10-31T11:08:05;96894.75;;;23.45;50.70
20971;BME280;10644;48.834;10.088;2022-10-31T11:10:35;96895.69;;;23.77;49.56
20971;BME280;10644;48.834;10.088;2022-10-31T11:13:25;96890.25;;;23.71;49.30
20971;BME280;10644;48.834;10.088;2022-10-31T11:16:06;96891.09;;;23.71;49.28
20971;BME280;10644;48.834;10.088;2022-10-31T11:18:38;96894.28;;;23.91;49.11
20971;BME280;10644;48.834;10.088;2022-10-31T11:21:05;96878.44;;;23.59;48.96
20971;BME280;10644;48.834;10.088;2022-10-31T11:23:33;96884.00;;;23.56;49.46
20971;BME280;10644;48.834;10.088;2022-10-31T11:26:19;96884.06;;;23.38;49.06
20971;BME280;10644;48.834;10.088;2022-10-31T11:28:56;96873.50;;;23.48;49.33
20971;BME280;10644;48.834;10.088;2022-10-31T11:31:24;96868.94;;;23.50;49.60
20971;BME280;10644;48.834;10.088;2022-10-31T11:34:04;96875.72;;;23.35;49.84
20971;BME280;10644;48.834;10.088;2022-10-31T11:36:33;96884.03;;;23.30;49.93
20971;BME280;10644;48.834;10.088;2022-10-31T11:39:02;96874.88;;;23.60;49.77
20971;BME280;10644;48.834;10.088;2022-10-31T11:41:28;96874.38;;;23.64;49.55
20971;BME280;10644;48.834;10.088;2022-10-31T11:46:37;96875.34;;;23.22;50.41
20971;BME280;10644;48.834;10.088;2022-10-31T11:49:05;96866.66;;;22.96;51.50
20971;BME280;10644;48.834;10.088;2022-10-31T11:51:37;96862.50;;;22.85;51.41
20971;BME280;10644;48.834;10.088;2022-10-31T11:54:04;96867.16;;;22.74;51.74
20971;BME280;10644;48.834;10.088;2022-10-31T11:56:39;96860.53;;;22.62;51.48
20971;BME280;10644;48.834;10.088;2022-10-31T11:59:37;96854.09;;;22.74;52.08
20971;BME280;10644;48.834;10.088;2022-10-31T12:02:18;96845.81;;;23.04;51.18
20971;BME280;10644;48.834;10.088;2022-10-31T12:04:55;96851.06;;;23.12;51.10
20971;BME280;10644;48.834;10.088;2022-10-31T12:07:26;96837.56;;;23.58;50.25
20971;BME280;10644;48.834;10.088;2022-10-31T12:09:52;96844.13;;;23.62;50.27
20971;BME280;10644;48.834;10.088;2022-10-31T12:15:33;96835.41;;;23.95;49.21
20971;BME280;10644;48.834;10.088;2022-10-31T12:26:32;96812.22;;;24.64;47.19
20971;BME280;10644;48.834;10.088;2022-10-31T12:53:17;96780.44;;;24.51;46.52
20971;BME280;10644;48.834;10.088;2022-10-31T12:59:25;96791.91;;;24.34;46.50
20971;BME280;10644;48.834;10.088;2022-10-31T13:02:27;96791.44;;;24.30;46.85
20971;BME280;10644;48.834;10.088;2022-10-31T13:11:14;96774.16;;;24.92;45.37
20971;BME280;10644;48.834;10.088;2022-10-31T13:16:48;96770.56;;;24.85;45.75
20971;BME280;10644;48.834;10.088;2022-10-31T13:19:34;96769.13;;;24.50;45.84
20971;BME280;10644;48.834;10.088;2022-10-31T13:22:33;96761.28;;;24.26;46.76
20971;BME280;10644;48.834;10.088;2022-10-31T13:25:13;96756.88;;;24.19;47.54
20971;BME280;10644;48.834;10.088;2022-10-31T13:30:51;96752.22;;;23.57;49.01
20971;BME280;10644;48.834;10.088;2022-10-31T13:33:38;96747.22;;;23.22;49.93
20971;BME280;10644;48.834;10.088;2022-10-31T13:36:25;96736.69;;;23.63;48.73
20971;BME280;10644;48.834;10.088;2022-10-31T13:39:33;96746.00;;;23.58;48.72
20971;BME280;10644;48.834;10.088;2022-10-31T13:45:23;96730.41;;;23.32;49.76
20971;BME280;10644;48.834;10.088;2022-10-31T13:50:43;96727.59;;;23.18;50.06
20971;BME280;10644;48.834;10.088;2022-10-31T13:53:21;96737.13;;;23.35;49.76
20971;BME280;10644;48.834;10.088;2022-10-31T13:56:01;96723.41;;;23.41;49.39
20971;BME280;10644;48.834;10.088;2022-10-31T13:58:31;96723.91;;;23.03;50.57
20971;BME280;10644;48.834;10.088;2022-10-31T14:01:21;96726.56;;;23.11;50.63
20971;BME280;10644;48.834;10.088;2022-10-31T14:07:09;96718.78;;;22.85;51.24
20971;BME280;10644;48.834;10.088;2022-10-31T14:15:16;96722.94;;;23.04;50.75
20971;BME280;10644;48.834;10.088;2022-10-31T14:18:03;96717.25;;;23.08;50.60
20971;BME280;10644;48.834;10.088;2022-10-31T14:52:05;96696.53;;;23.15;50.84
20971;BME280;10644;48.834;10.088;2022-10-31T14:54:41;96696.56;;;23.23;50.42
20971;BME280;10644;48.834;10.088;2022-10-31T14:57:34;96690.25;;;23.00;51.17
20971;BME280;10644;48.834;10.088;2022-10-31T15:00:19;96684.19;;;22.99;51.00
20971;BME280;10644;48.834;10.088;2022-10-31T15:03:13;96683.34;;;23.24;50.68
20971;BME280;10644;48.834;10.088;2022-10-31T15:05:52;96694.28;;;23.36;50.25
20971;BME280;10644;48.834;10.088;2022-10-31T15:08:37;96679.66;;;23.01;50.60
20971;BME280;10644;48.834;10.088;2022-10-31T15:13:48;96685.88;;;23.16;50.08
20971;BME280;10644;48.834;10.088;2022-10-31T15:16:16;96682.41;;;23.00;50.45
20971;BME280;10644;48.834;10.088;2022-10-31T15:19:20;96678.09;;;22.83;50.66
20971;BME280;10644;48.834;10.088;2022-10-31T15:21:50;96682.75;;;22.63;51.43
20971;BME280;10644;48.834;10.088;2022-10-31T15:24:19;96686.59;;;22.85;51.07
20971;BME280;10644;48.834;10.088;2022-10-31T15:26:58;96690.06;;;22.93;50.51
20971;BME280;10644;48.834;10.088;2022-10-31T15:29:28;96687.84;;;23.14;50.22
20971;BME280;10644;48.834;10.088;2022-10-31T15:34:47;96677.19;;;23.08;50.24
20971;BME280;10644;48.834;10.088;2022-10-31T15:37:14;96675.44;;;22.75;51.10
20971;BME280;10644;48.834;10.088;2022-10-31T15:39:49;96670.00;;;22.35;51.92
20971;BME280;10644;48.834;10.088;2022-10-31T15:47:49;96660.75;;;22.40;52.09
20971;BME280;10644;48.834;10.088;2022-10-31T15:52:53;96668.34;;;22.51;52.28
20971;BME280;10644;48.834;10.088;2022-10-31T15:55:38;96674.28;;;22.69;51.64
20971;BME280;10644;48.834;10.088;2022-10-31T15:58:12;96675.78;;;22.80;51.58
20971;BME280;10644;48.834;10.088;2022-10-31T16:00:38;96674.66;;;22.82;51.27
20971;BME280;10644;48.834;10.088;2022-10-31T16:03:25;96662.06;;;22.70;52.05
20971;BME280;10644;48.834;10.088;2022-10-31T16:06:03;96661.31;;;22.26;53.03
20971;BME280;10644;48.834;10.088;2022-10-31T16:08:49;96668.44;;;21.91;54.16
20971;BME280;10644;48.834;10.088;2022-10-31T16:14:00;96672.84;;;21.38;55.82
20971;BME280;10644;48.834;10.088;2022-10-31T16:16:30;96674.25;;;21.50;55.38
20971;BME280;10644;48.834;10.088;2022-10-31T16:19:00;96678.88;;;21.73;54.83
20971;BME280;10644;48.834;10.088;2022-10-31T16:21:35;96676.03;;;21.84;54.33
20971;BME280;10644;48.834;10.088;2022-10-31T16:24:05;96685.94;;;21.63;55.11
20971;BME280;10644;48.834;10.088;2022-10-31T16:26:48;96686.25;;;21.60;55.09
20971;BME280;10644;48.834;10.088;2022-10-31T16:29:28;96672.63;;;21.66;54.38
20971;BME280;10644;48.834;10.088;2022-10-31T16:31:57;96687.09;;;21.78;54.33
20971;BME280;10644;48.834;10.088;2022-10-31T16:34:23;96681.63;;;21.37;54.59
20971;BME280;10644;48.834;10.088;2022-10-31T16:37:03;96680.75;;;21.46;54.33
20971;BME280;10644;48.834;10.088;2022-10-31T16:39:31;96681.63;;;21.37;54.51
20971;BME280;10644;48.834;10.088;2022-10-31T16:41:58;96683.34;;;21.46;54.13
20971;BME280;10644;48.834;10.088;2022-10-31T16:44:26;96677.88;;;21.57;53.51
20971;BME280;10644;48.834;10.088;2022-10-31T16:47:20;96674.13;;;21.69;53.39
20971;BME280;10644;48.834;10.088;2022-10-31T16:49:54;96677.59;;;21.25;54.39
20971;BME280;10644;48.834;10.088;2022-10-31T16:52:19;96665.91;;;21.29;54.24
20971;BME280;10644;48.834;10.088;2022-10-31T16:54:50;96676.09;;;21.40;54.09
20971;BME280;10644;48.834;10.088;2022-10-31T16:57:29;96683.34;;;21.28;54.40